sensor_id;sensor_type;location;lat;lon;timestamp;P1;durP1;ratioP1;P2;durP2;ratioP2
6223;SDS011;3145;42.726;23.342;2023-04-01T00:00:22;44.43;;;26.00;;
6223;SDS011;3145;42.726;23.342;2023-04-01T00:02:48;37.77;;;25.60;;
6223;SDS011;3145;42.726;23.342;2023-04-01T00:05:17;40.67;;;23.83;;
6223;SDS011;3145;42.726;23.342;2023-04-01T00:07:44;35.93;;;23.77;;
6223;SDS011;3145;42.726;23.342;2023-04-01T00:10:11;42.07;;;22.63;;
6223;SDS011;3145;42.726;23.342;2023-04-01T00:12:39;51.10;;;30.07;;
6223;SDS011;3145;42.726;23.342;2023-04-01T00:15:07;70.10;;;38.90;;
6223;SDS011;3145;42.726;23.342;2023-04-01T00:17:35;49.93;;;25.93;;
6223;SDS011;3145;42.726;23.342;2023-04-01T00:20:03;50.30;;;27.60;;
6223;SDS011;3145;42.726;23.342;2023-04-01T00:22:31;41.13;;;23.50;;
6223;SDS011;3145;42.726;23.342;2023-04-01T00:24:59;34.83;;;23.63;;
6223;SDS011;3145;42.726;23.342;2023-04-01T00:27:25;33.00;;;21.87;;
6223;SDS011;3145;42.726;23.342;2023-04-01T00:29:52;38.40;;;24.83;;
6223;SDS011;3145;42.726;23.342;2023-04-01T00:32:19;37.73;;;22.13;;
6223;SDS011;3145;42.726;23.342;2023-04-01T00:34:46;36.53;;;22.53;;
6223;SDS011;3145;42.726;23.342;2023-04-01T00:37:16;34.20;;;22.40;;
6223;SDS011;3145;42.726;23.342;2023-04-01T00:39:44;37.00;;;23.47;;
6223;SDS011;3145;42.726;23.342;2023-04-01T00:42:12;37.97;;;23.50;;
6223;SDS011;3145;42.726;23.342;2023-04-01T00:44:39;37.73;;;22.90;;
6223;SDS011;3145;42.726;23.342;2023-04-01T00:47:06;45.60;;;29.73;;
6223;SDS011;3145;42.726;23.342;2023-04-01T00:49:34;38.43;;;25.03;;
6223;SDS011;3145;42.726;23.342;2023-04-01T00:52:05;31.77;;;22.63;;
6223;SDS011;3145;42.726;23.342;2023-04-01T00:54:36;38.23;;;25.17;;
6223;SDS011;3145;42.726;23.342;2023-04-01T00:57:08;30.37;;;22.50;;
6223;SDS011;3145;42.726;23.342;2023-04-01T00:59:40;35.37;;;23.73;;
6223;SDS011;3145;42.726;23.342;2023-04-01T01:02:10;33.63;;;23.60;;
6223;SDS011;3145;42.726;23.342;2023-04-01T01:04:38;34.10;;;22.23;;
6223;SDS011;3145;42.726;23.342;2023-04-01T01:07:09;31.50;;;20.07;;
6223;SDS011;3145;42.726;23.342;2023-04-01T01:09:46;27.40;;;19.83;;
6223;SDS011;3145;42.726;23.342;2023-04-01T01:12:23;27.17;;;18.97;;
6223;SDS011;3145;42.726;23.342;2023-04-01T01:15:03;30.00;;;19.20;;
6223;SDS011;3145;42.726;23.342;2023-04-01T01:17:40;26.73;;;19.27;;
6223;SDS011;3145;42.726;23.342;2023-04-01T01:20:29;33.60;;;18.57;;
6223;SDS011;3145;42.726;23.342;2023-04-01T01:29:09;23.27;;;15.93;;
6223;SDS011;3145;42.726;23.342;2023-04-01T01:31:46;21.53;;;17.03;;
6223;SDS011;3145;42.726;23.342;2023-04-01T01:34:21;24.73;;;17.20;;
6223;SDS011;3145;42.726;23.342;2023-04-01T01:36:56;31.27;;;19.53;;
6223;SDS011;3145;42.726;23.342;2023-04-01T01:39:27;31.40;;;19.70;;
6223;SDS011;3145;42.726;23.342;2023-04-01T01:41:58;27.53;;;17.97;;
6223;SDS011;3145;42.726;23.342;2023-04-01T01:44:29;33.03;;;19.27;;
6223;SDS011;3145;42.726;23.342;2023-04-01T01:46:58;27.20;;;17.67;;
6223;SDS011;3145;42.726;23.342;2023-04-01T01:49:26;26.13;;;18.70;;
6223;SDS011;3145;42.726;23.342;2023-04-01T01:51:56;27.73;;;17.93;;
6223;SDS011;3145;42.726;23.342;2023-04-01T01:54:23;24.70;;;17.83;;
6223;SDS011;3145;42.726;23.342;2023-04-01T01:56:51;35.70;;;18.83;;
6223;SDS011;3145;42.726;23.342;2023-04-01T01:59:23;29.77;;;19.40;;
6223;SDS011;3145;42.726;23.342;2023-04-01T02:01:52;30.57;;;19.43;;
6223;SDS011;3145;42.726;23.342;2023-04-01T02:04:22;25.57;;;19.20;;
6223;SDS011;3145;42.726;23.342;2023-04-01T02:06:50;27.83;;;18.67;;
6223;SDS011;3145;42.726;23.342;2023-04-01T02:09:23;32.47;;;19.47;;
6223;SDS011;3145;42.726;23.342;2023-04-01T02:11:50;29.37;;;18.00;;
6223;SDS011;3145;42.726;23.342;2023-04-01T02:14:19;28.07;;;18.77;;
6223;SDS011;3145;42.726;23.342;2023-04-01T02:16:51;28.50;;;17.70;;
6223;SDS011;3145;42.726;23.342;2023-04-01T02:19:22;27.50;;;19.70;;
6223;SDS011;3145;42.726;23.342;2023-04-01T02:21:55;28.77;;;19.13;;
6223;SDS011;3145;42.726;23.342;2023-04-01T02:24:26;31.83;;;20.00;;
6223;SDS011;3145;42.726;23.342;2023-04-01T02:26:56;37.00;;;20.33;;
6223;SDS011;3145;42.726;23.342;2023-04-01T02:29:23;50.30;;;27.70;;
6223;SDS011;3145;42.726;23.342;2023-04-01T02:31:51;32.77;;;20.70;;
6223;SDS011;3145;42.726;23.342;2023-04-01T02:34:19;30.63;;;19.87;;
6223;SDS011;3145;42.726;23.342;2023-04-01T02:36:47;25.30;;;18.23;;
6223;SDS011;3145;42.726;23.342;2023-04-01T02:39:15;24.37;;;17.27;;
6223;SDS011;3145;42.726;23.342;2023-04-01T02:41:44;25.03;;;17.37;;
6223;SDS011;3145;42.726;23.342;2023-04-01T02:44:13;23.57;;;16.47;;
6223;SDS011;3145;42.726;23.342;2023-04-01T02:46:41;26.37;;;16.67;;
6223;SDS011;3145;42.726;23.342;2023-04-01T02:49:07;24.47;;;16.63;;
6223;SDS011;3145;42.726;23.342;2023-04-01T02:51:34;22.03;;;17.57;;
6223;SDS011;3145;42.726;23.342;2023-04-01T02:54:01;28.73;;;18.97;;
6223;SDS011;3145;42.726;23.342;2023-04-01T02:56:28;28.97;;;18.67;;
6223;SDS011;3145;42.726;23.342;2023-04-01T02:58:56;27.30;;;16.80;;
6223;SDS011;3145;42.726;23.342;2023-04-01T03:01:23;32.67;;;15.23;;
6223;SDS011;3145;42.726;23.342;2023-04-01T03:03:49;21.63;;;15.13;;
6223;SDS011;3145;42.726;23.342;2023-04-01T03:06:16;29.40;;;17.33;;
6223;SDS011;3145;42.726;23.342;2023-04-01T03:08:44;21.80;;;13.87;;
6223;SDS011;3145;42.726;23.342;2023-04-01T03:11:10;22.90;;;14.93;;
6223;SDS011;3145;42.726;23.342;2023-04-01T03:13:37;15.37;;;13.30;;
6223;SDS011;3145;42.726;23.342;2023-04-01T03:16:06;21.17;;;13.87;;
6223;SDS011;3145;42.726;23.342;2023-04-01T03:18:33;20.27;;;13.93;;
6223;SDS011;3145;42.726;23.342;2023-04-01T03:21:11;25.00;;;14.37;;
6223;SDS011;3145;42.726;23.342;2023-04-01T03:23:39;15.97;;;13.53;;
6223;SDS011;3145;42.726;23.342;2023-04-01T03:26:06;23.03;;;13.90;;
6223;SDS011;3145;42.726;23.342;2023-04-01T03:28:33;19.10;;;13.77;;
6223;SDS011;3145;42.726;23.342;2023-04-01T03:30:59;18.77;;;13.53;;
6223;SDS011;3145;42.726;23.342;2023-04-01T03:33:27;19.83;;;12.57;;
6223;SDS011;3145;42.726;23.342;2023-04-01T03:35:54;19.30;;;13.30;;
6223;SDS011;3145;42.726;23.342;2023-04-01T03:38:21;17.70;;;13.63;;
6223;SDS011;3145;42.726;23.342;2023-04-01T03:40:48;16.70;;;13.37;;
6223;SDS011;3145;42.726;23.342;2023-04-01T03:43:14;21.10;;;14.30;;
6223;SDS011;3145;42.726;23.342;2023-04-01T03:45:43;27.00;;;15.80;;
6223;SDS011;3145;42.726;23.342;2023-04-01T03:48:10;19.67;;;14.47;;
6223;SDS011;3145;42.726;23.342;2023-04-01T03:50:38;21.97;;;14.90;;
6223;SDS011;3145;42.726;23.342;2023-04-01T03:53:05;25.10;;;20.07;;
6223;SDS011;3145;42.726;23.342;2023-04-01T03:55:32;44.47;;;30.40;;
6223;SDS011;3145;42.726;23.342;2023-04-01T03:57:59;37.70;;;25.53;;
6223;SDS011;3145;42.726;23.342;2023-04-01T04:00:27;30.43;;;20.60;;
6223;SDS011;3145;42.726;23.342;2023-04-01T04:02:54;23.73;;;18.37;;
6223;SDS011;3145;42.726;23.342;2023-04-01T04:05:22;25.23;;;17.73;;
6223;SDS011;3145;42.726;23.342;2023-04-01T04:07:50;26.77;;;17.63;;
6223;SDS011;3145;42.726;23.342;2023-04-01T04:10:17;21.23;;;17.37;;
6223;SDS011;3145;42.726;23.342;2023-04-01T04:12:45;28.33;;;19.83;;
6223;SDS011;3145;42.726;23.342;2023-04-01T04:15:12;30.47;;;20.10;;
6223;SDS011;3145;42.726;23.342;2023-04-01T04:17:38;23.97;;;15.77;;
6223;SDS011;3145;42.726;23.342;2023-04-01T04:20:05;18.93;;;14.43;;
6223;SDS011;3145;42.726;23.342;2023-04-01T04:22:33;23.27;;;17.37;;
6223;SDS011;3145;42.726;23.342;2023-04-01T04:25:02;29.77;;;20.67;;
6223;SDS011;3145;42.726;23.342;2023-04-01T04:27:28;28.53;;;21.63;;
6223;SDS011;3145;42.726;23.342;2023-04-01T04:29:55;27.40;;;18.90;;
6223;SDS011;3145;42.726;23.342;2023-04-01T04:32:22;28.00;;;18.60;;
6223;SDS011;3145;42.726;23.342;2023-04-01T04:34:49;22.93;;;17.00;;
6223;SDS011;3145;42.726;23.342;2023-04-01T04:37:15;23.80;;;15.23;;
6223;SDS011;3145;42.726;23.342;2023-04-01T04:39:42;21.93;;;17.70;;
6223;SDS011;3145;42.726;23.342;2023-04-01T04:42:10;27.33;;;16.30;;
6223;SDS011;3145;42.726;23.342;2023-04-01T04:44:37;19.40;;;16.00;;
6223;SDS011;3145;42.726;23.342;2023-04-01T04:47:05;22.17;;;14.63;;
6223;SDS011;3145;42.726;23.342;2023-04-01T04:49:31;22.10;;;14.30;;
6223;SDS011;3145;42.726;23.342;2023-04-01T04:51:58;21.53;;;15.73;;
6223;SDS011;3145;42.726;23.342;2023-04-01T04:54:25;30.27;;;16.20;;
6223;SDS011;3145;42.726;23.342;2023-04-01T04:56:52;37.87;;;19.30;;
6223;SDS011;3145;42.726;23.342;2023-04-01T04:59:21;33.80;;;19.93;;
6223;SDS011;3145;42.726;23.342;2023-04-01T05:01:48;28.83;;;20.20;;
6223;SDS011;3145;42.726;23.342;2023-04-01T05:04:15;28.47;;;19.77;;
6223;SDS011;3145;42.726;23.342;2023-04-01T05:06:42;29.23;;;18.13;;
6223;SDS011;3145;42.726;23.342;2023-04-01T05:09:09;28.00;;;21.00;;
6223;SDS011;3145;42.726;23.342;2023-04-01T05:11:36;30.73;;;20.10;;
6223;SDS011;3145;42.726;23.342;2023-04-01T05:14:03;23.07;;;17.20;;
6223;SDS011;3145;42.726;23.342;2023-04-01T05:16:32;38.47;;;23.83;;
6223;SDS011;3145;42.726;23.342;2023-04-01T05:18:59;36.10;;;25.37;;
6223;SDS011;3145;42.726;23.342;2023-04-01T05:21:26;46.57;;;26.50;;
6223;SDS011;3145;42.726;23.342;2023-04-01T05:23:53;44.10;;;24.80;;
6223;SDS011;3145;42.726;23.342;2023-04-01T05:26:20;34.23;;;23.00;;
6223;SDS011;3145;42.726;23.342;2023-04-01T05:28:47;37.93;;;25.43;;
6223;SDS011;3145;42.726;23.342;2023-04-01T05:31:13;38.30;;;25.53;;
6223;SDS011;3145;42.726;23.342;2023-04-01T05:33:41;38.03;;;25.50;;
6223;SDS011;3145;42.726;23.342;2023-04-01T05:36:09;34.10;;;25.73;;
6223;SDS011;3145;42.726;23.342;2023-04-01T05:38:37;43.70;;;25.53;;
6223;SDS011;3145;42.726;23.342;2023-04-01T05:41:04;51.93;;;29.53;;
6223;SDS011;3145;42.726;23.342;2023-04-01T05:43:31;48.27;;;28.97;;
6223;SDS011;3145;42.726;23.342;2023-04-01T05:45:57;39.53;;;26.97;;
6223;SDS011;3145;42.726;23.342;2023-04-01T05:48:24;37.60;;;25.03;;
6223;SDS011;3145;42.726;23.342;2023-04-01T05:50:52;33.47;;;20.00;;
6223;SDS011;3145;42.726;23.342;2023-04-01T05:53:19;27.20;;;18.17;;
6223;SDS011;3145;42.726;23.342;2023-04-01T05:55:46;31.97;;;15.80;;
6223;SDS011;3145;42.726;23.342;2023-04-01T05:58:13;26.40;;;16.50;;
6223;SDS011;3145;42.726;23.342;2023-04-01T06:00:39;34.63;;;20.40;;
6223;SDS011;3145;42.726;23.342;2023-04-01T06:03:06;33.63;;;24.50;;
6223;SDS011;3145;42.726;23.342;2023-04-01T06:05:36;29.47;;;18.33;;
6223;SDS011;3145;42.726;23.342;2023-04-01T06:08:09;22.87;;;15.63;;
6223;SDS011;3145;42.726;23.342;2023-04-01T06:10:40;23.80;;;13.80;;
6223;SDS011;3145;42.726;23.342;2023-04-01T06:13:18;16.97;;;10.93;;
6223;SDS011;3145;42.726;23.342;2023-04-01T06:15:52;21.80;;;11.37;;
6223;SDS011;3145;42.726;23.342;2023-04-01T06:21:47;15.33;;;9.33;;
6223;SDS011;3145;42.726;23.342;2023-04-01T06:27:27;10.57;;;6.80;;
6223;SDS011;3145;42.726;23.342;2023-04-01T06:30:13;11.30;;;8.30;;
6223;SDS011;3145;42.726;23.342;2023-04-01T06:32:57;15.20;;;9.73;;
6223;SDS011;3145;42.726;23.342;2023-04-01T06:35:42;12.80;;;7.67;;
6223;SDS011;3145;42.726;23.342;2023-04-01T06:38:33;10.37;;;7.73;;
6223;SDS011;3145;42.726;23.342;2023-04-01T06:41:13;9.73;;;8.40;;
6223;SDS011;3145;42.726;23.342;2023-04-01T06:43:54;11.23;;;8.00;;
6223;SDS011;3145;42.726;23.342;2023-04-01T06:46:32;9.90;;;7.47;;
6223;SDS011;3145;42.726;23.342;2023-04-01T06:49:20;10.17;;;6.83;;
6223;SDS011;3145;42.726;23.342;2023-04-01T06:51:58;14.90;;;7.40;;
6223;SDS011;3145;42.726;23.342;2023-04-01T06:54:31;11.70;;;7.27;;
6223;SDS011;3145;42.726;23.342;2023-04-01T06:57:02;13.17;;;7.40;;
6223;SDS011;3145;42.726;23.342;2023-04-01T06:59:36;15.33;;;7.50;;
6223;SDS011;3145;42.726;23.342;2023-04-01T07:02:04;13.00;;;7.17;;
6223;SDS011;3145;42.726;23.342;2023-04-01T07:04:51;9.70;;;8.03;;
6223;SDS011;3145;42.726;23.342;2023-04-01T07:07:21;15.00;;;9.30;;
6223;SDS011;3145;42.726;23.342;2023-04-01T07:09:56;10.57;;;8.40;;
6223;SDS011;3145;42.726;23.342;2023-04-01T07:12:31;17.57;;;11.60;;
6223;SDS011;3145;42.726;23.342;2023-04-01T07:15:11;17.07;;;10.67;;
6223;SDS011;3145;42.726;23.342;2023-04-01T07:17:48;14.33;;;10.17;;
6223;SDS011;3145;42.726;23.342;2023-04-01T07:20:20;15.87;;;8.33;;
6223;SDS011;3145;42.726;23.342;2023-04-01T07:22:51;11.50;;;9.40;;
6223;SDS011;3145;42.726;23.342;2023-04-01T07:25:22;12.33;;;8.70;;
6223;SDS011;3145;42.726;23.342;2023-04-01T07:27:53;10.17;;;8.30;;
6223;SDS011;3145;42.726;23.342;2023-04-01T07:30:27;11.07;;;8.70;;
6223;SDS011;3145;42.726;23.342;2023-04-01T07:33:00;12.00;;;8.00;;
6223;SDS011;3145;42.726;23.342;2023-04-01T07:35:36;9.43;;;8.17;;
6223;SDS011;3145;42.726;23.342;2023-04-01T07:38:11;22.33;;;8.13;;
6223;SDS011;3145;42.726;23.342;2023-04-01T07:40:49;9.97;;;7.80;;
6223;SDS011;3145;42.726;23.342;2023-04-01T07:43:38;14.20;;;8.23;;
6223;SDS011;3145;42.726;23.342;2023-04-01T07:46:21;11.87;;;7.57;;
6223;SDS011;3145;42.726;23.342;2023-04-01T07:49:01;11.27;;;7.33;;
6223;SDS011;3145;42.726;23.342;2023-04-01T07:51:34;14.57;;;7.20;;
6223;SDS011;3145;42.726;23.342;2023-04-01T07:54:09;11.37;;;8.50;;
6223;SDS011;3145;42.726;23.342;2023-04-01T07:56:43;7.53;;;5.30;;
6223;SDS011;3145;42.726;23.342;2023-04-01T07:59:18;12.23;;;6.20;;
6223;SDS011;3145;42.726;23.342;2023-04-01T08:01:54;14.53;;;6.57;;
6223;SDS011;3145;42.726;23.342;2023-04-01T08:04:34;11.40;;;7.30;;
6223;SDS011;3145;42.726;23.342;2023-04-01T08:07:12;12.80;;;7.57;;
6223;SDS011;3145;42.726;23.342;2023-04-01T08:09:43;9.00;;;5.83;;
6223;SDS011;3145;42.726;23.342;2023-04-01T08:12:22;14.57;;;5.10;;
6223;SDS011;3145;42.726;23.342;2023-04-01T08:15:02;15.70;;;7.17;;
6223;SDS011;3145;42.726;23.342;2023-04-01T08:17:41;12.23;;;8.60;;
6223;SDS011;3145;42.726;23.342;2023-04-01T08:20:22;18.10;;;7.80;;
6223;SDS011;3145;42.726;23.342;2023-04-01T08:22:57;13.67;;;6.70;;
6223;SDS011;3145;42.726;23.342;2023-04-01T08:25:29;11.17;;;7.50;;
6223;SDS011;3145;42.726;23.342;2023-04-01T08:27:59;11.97;;;7.17;;
6223;SDS011;3145;42.726;23.342;2023-04-01T08:30:35;15.63;;;9.27;;
6223;SDS011;3145;42.726;23.342;2023-04-01T08:33:10;14.47;;;7.40;;
6223;SDS011;3145;42.726;23.342;2023-04-01T08:35:42;12.17;;;6.67;;
6223;SDS011;3145;42.726;23.342;2023-04-01T08:38:17;16.10;;;7.27;;
6223;SDS011;3145;42.726;23.342;2023-04-01T08:40:54;13.97;;;8.50;;
6223;SDS011;3145;42.726;23.342;2023-04-01T08:46:46;10.00;;;4.33;;
6223;SDS011;3145;42.726;23.342;2023-04-01T08:49:39;5.37;;;4.87;;
6223;SDS011;3145;42.726;23.342;2023-04-01T08:52:27;6.00;;;3.87;;
6223;SDS011;3145;42.726;23.342;2023-04-01T08:55:02;8.23;;;4.60;;
6223;SDS011;3145;42.726;23.342;2023-04-01T08:57:50;7.50;;;4.57;;
6223;SDS011;3145;42.726;23.342;2023-04-01T09:00:31;5.43;;;3.67;;
6223;SDS011;3145;42.726;23.342;2023-04-01T09:09:11;9.50;;;5.27;;
6223;SDS011;3145;42.726;23.342;2023-04-01T09:12:15;4.97;;;3.17;;
6223;SDS011;3145;42.726;23.342;2023-04-01T09:15:16;6.83;;;3.90;;
6223;SDS011;3145;42.726;23.342;2023-04-01T09:20:58;3.20;;;2.90;;
6223;SDS011;3145;42.726;23.342;2023-04-01T09:23:41;4.67;;;3.47;;
6223;SDS011;3145;42.726;23.342;2023-04-01T09:26:35;6.40;;;3.93;;
6223;SDS011;3145;42.726;23.342;2023-04-01T09:29:17;12.80;;;6.50;;
6223;SDS011;3145;42.726;23.342;2023-04-01T09:32:07;6.03;;;3.43;;
6223;SDS011;3145;42.726;23.342;2023-04-01T09:34:54;7.17;;;5.23;;
6223;SDS011;3145;42.726;23.342;2023-04-01T09:37:27;14.00;;;6.73;;
6223;SDS011;3145;42.726;23.342;2023-04-01T09:45:53;13.53;;;4.23;;
6223;SDS011;3145;42.726;23.342;2023-04-01T09:51:47;17.30;;;4.73;;
6223;SDS011;3145;42.726;23.342;2023-04-01T09:54:31;8.30;;;5.10;;
6223;SDS011;3145;42.726;23.342;2023-04-01T10:03:31;6.07;;;4.13;;
6223;SDS011;3145;42.726;23.342;2023-04-01T10:06:27;8.27;;;3.83;;
6223;SDS011;3145;42.726;23.342;2023-04-01T10:12:25;5.87;;;3.67;;
6223;SDS011;3145;42.726;23.342;2023-04-01T10:15:26;8.53;;;3.70;;
6223;SDS011;3145;42.726;23.342;2023-04-01T10:18:34;4.10;;;2.50;;
6223;SDS011;3145;42.726;23.342;2023-04-01T10:21:19;6.93;;;3.80;;
6223;SDS011;3145;42.726;23.342;2023-04-01T10:27:22;15.23;;;6.40;;
6223;SDS011;3145;42.726;23.342;2023-04-01T10:30:18;4.33;;;3.80;;
6223;SDS011;3145;42.726;23.342;2023-04-01T10:33:19;5.47;;;3.70;;
6223;SDS011;3145;42.726;23.342;2023-04-01T10:39:08;5.97;;;4.70;;
6223;SDS011;3145;42.726;23.342;2023-04-01T10:42:06;7.53;;;4.20;;
6223;SDS011;3145;42.726;23.342;2023-04-01T10:45:05;8.03;;;5.37;;
6223;SDS011;3145;42.726;23.342;2023-04-01T10:48:03;11.17;;;5.40;;
6223;SDS011;3145;42.726;23.342;2023-04-01T10:53:40;11.47;;;4.63;;
6223;SDS011;3145;42.726;23.342;2023-04-01T10:56:21;8.17;;;4.30;;
6223;SDS011;3145;42.726;23.342;2023-04-01T10:59:08;6.07;;;5.20;;
6223;SDS011;3145;42.726;23.342;2023-04-01T11:08:28;9.50;;;6.80;;
6223;SDS011;3145;42.726;23.342;2023-04-01T11:23:35;6.73;;;5.00;;
6223;SDS011;3145;42.726;23.342;2023-04-01T11:26:31;18.80;;;5.40;;
6223;SDS011;3145;42.726;23.342;2023-04-01T11:29:24;18.43;;;9.03;;
6223;SDS011;3145;42.726;23.342;2023-04-01T11:32:07;15.60;;;6.80;;
6223;SDS011;3145;42.726;23.342;2023-04-01T11:34:50;8.73;;;5.57;;
6223;SDS011;3145;42.726;23.342;2023-04-01T11:37:34;7.30;;;5.87;;
6223;SDS011;3145;42.726;23.342;2023-04-01T11:40:11;8.77;;;6.30;;
6223;SDS011;3145;42.726;23.342;2023-04-01T11:42:49;14.17;;;5.63;;
6223;SDS011;3145;42.726;23.342;2023-04-01T11:45:24;8.33;;;3.30;;
6223;SDS011;3145;42.726;23.342;2023-04-01T11:50:58;11.00;;;4.03;;
6223;SDS011;3145;42.726;23.342;2023-04-01T11:53:41;9.33;;;3.57;;
6223;SDS011;3145;42.726;23.342;2023-04-01T11:56:21;4.10;;;3.10;;
6223;SDS011;3145;42.726;23.342;2023-04-01T12:02:16;12.10;;;6.57;;
6223;SDS011;3145;42.726;23.342;2023-04-01T12:07:49;14.47;;;8.57;;
6223;SDS011;3145;42.726;23.342;2023-04-01T12:10:25;12.30;;;9.70;;
6223;SDS011;3145;42.726;23.342;2023-04-01T12:12:59;5.77;;;5.27;;
6223;SDS011;3145;42.726;23.342;2023-04-01T12:15:36;6.50;;;5.03;;
6223;SDS011;3145;42.726;23.342;2023-04-01T12:18:17;6.20;;;4.83;;
6223;SDS011;3145;42.726;23.342;2023-04-01T12:20:53;8.37;;;5.67;;
6223;SDS011;3145;42.726;23.342;2023-04-01T12:23:32;8.90;;;5.00;;
6223;SDS011;3145;42.726;23.342;2023-04-01T12:29:21;5.17;;;4.53;;
6223;SDS011;3145;42.726;23.342;2023-04-01T12:32:10;7.77;;;4.73;;
6223;SDS011;3145;42.726;23.342;2023-04-01T12:37:49;15.60;;;8.87;;
6223;SDS011;3145;42.726;23.342;2023-04-01T12:40:30;8.33;;;5.20;;
6223;SDS011;3145;42.726;23.342;2023-04-01T12:43:27;4.93;;;4.13;;
6223;SDS011;3145;42.726;23.342;2023-04-01T12:46:15;8.07;;;4.77;;
6223;SDS011;3145;42.726;23.342;2023-04-01T12:49:02;4.73;;;4.17;;
6223;SDS011;3145;42.726;23.342;2023-04-01T12:51:48;4.77;;;4.10;;
6223;SDS011;3145;42.726;23.342;2023-04-01T12:57:32;5.53;;;4.70;;
6223;SDS011;3145;42.726;23.342;2023-04-01T13:00:18;5.77;;;5.27;;
6223;SDS011;3145;42.726;23.342;2023-04-01T13:03:02;6.70;;;5.70;;
6223;SDS011;3145;42.726;23.342;2023-04-01T13:05:51;8.03;;;7.03;;
6223;SDS011;3145;42.726;23.342;2023-04-01T13:08:42;9.53;;;7.03;;
6223;SDS011;3145;42.726;23.342;2023-04-01T13:11:18;9.03;;;7.30;;
6223;SDS011;3145;42.726;23.342;2023-04-01T13:13:55;13.57;;;10.97;;
6223;SDS011;3145;42.726;23.342;2023-04-01T13:16:37;10.13;;;8.30;;
6223;SDS011;3145;42.726;23.342;2023-04-01T13:19:12;9.90;;;8.90;;
6223;SDS011;3145;42.726;23.342;2023-04-01T13:21:49;12.57;;;9.07;;
6223;SDS011;3145;42.726;23.342;2023-04-01T13:24:24;8.03;;;6.80;;
6223;SDS011;3145;42.726;23.342;2023-04-01T13:27:05;10.53;;;7.23;;
6223;SDS011;3145;42.726;23.342;2023-04-01T13:29:36;20.60;;;10.07;;
6223;SDS011;3145;42.726;23.342;2023-04-01T13:32:21;12.50;;;9.30;;
6223;SDS011;3145;42.726;23.342;2023-04-01T13:37:52;12.90;;;10.00;;
6223;SDS011;3145;42.726;23.342;2023-04-01T13:40:33;11.57;;;9.50;;
6223;SDS011;3145;42.726;23.342;2023-04-01T13:43:08;9.83;;;7.07;;
6223;SDS011;3145;42.726;23.342;2023-04-01T13:45:54;10.20;;;9.40;;
6223;SDS011;3145;42.726;23.342;2023-04-01T13:48:51;10.50;;;8.43;;
6223;SDS011;3145;42.726;23.342;2023-04-01T13:51:39;9.40;;;7.07;;
6223;SDS011;3145;42.726;23.342;2023-04-01T13:57:23;17.07;;;5.63;;
6223;SDS011;3145;42.726;23.342;2023-04-01T14:00:00;9.90;;;5.87;;
6223;SDS011;3145;42.726;23.342;2023-04-01T14:02:50;11.77;;;7.37;;
6223;SDS011;3145;42.726;23.342;2023-04-01T14:08:46;8.40;;;6.00;;
6223;SDS011;3145;42.726;23.342;2023-04-01T14:11:31;6.47;;;4.90;;
6223;SDS011;3145;42.726;23.342;2023-04-01T14:14:08;4.53;;;3.90;;
6223;SDS011;3145;42.726;23.342;2023-04-01T14:23:05;4.57;;;4.17;;
6223;SDS011;3145;42.726;23.342;2023-04-01T14:28:43;7.50;;;4.30;;
6223;SDS011;3145;42.726;23.342;2023-04-01T14:31:27;4.67;;;4.20;;
6223;SDS011;3145;42.726;23.342;2023-04-01T14:34:09;5.63;;;4.13;;
6223;SDS011;3145;42.726;23.342;2023-04-01T14:36:48;5.73;;;3.80;;
6223;SDS011;3145;42.726;23.342;2023-04-01T14:39:26;8.50;;;5.53;;
6223;SDS011;3145;42.726;23.342;2023-04-01T14:42:11;6.20;;;5.60;;
6223;SDS011;3145;42.726;23.342;2023-04-01T14:45:02;6.03;;;5.47;;
6223;SDS011;3145;42.726;23.342;2023-04-01T14:47:47;10.10;;;6.47;;
6223;SDS011;3145;42.726;23.342;2023-04-01T14:50:19;6.40;;;5.80;;
6223;SDS011;3145;42.726;23.342;2023-04-01T14:52:55;6.33;;;5.73;;
6223;SDS011;3145;42.726;23.342;2023-04-01T14:55:28;5.70;;;5.17;;
6223;SDS011;3145;42.726;23.342;2023-04-01T14:58:10;4.60;;;4.20;;
6223;SDS011;3145;42.726;23.342;2023-04-01T15:00:45;11.00;;;4.93;;
6223;SDS011;3145;42.726;23.342;2023-04-01T15:03:18;5.93;;;4.70;;
6223;SDS011;3145;42.726;23.342;2023-04-01T15:05:49;7.10;;;3.50;;
6223;SDS011;3145;42.726;23.342;2023-04-01T15:08:22;3.60;;;3.30;;
6223;SDS011;3145;42.726;23.342;2023-04-01T15:10:58;6.27;;;4.87;;
6223;SDS011;3145;42.726;23.342;2023-04-01T15:17:12;6.40;;;4.73;;
6223;SDS011;3145;42.726;23.342;2023-04-01T15:19:54;5.20;;;4.30;;
6223;SDS011;3145;42.726;23.342;2023-04-01T15:22:39;6.37;;;5.30;;
6223;SDS011;3145;42.726;23.342;2023-04-01T15:25:25;5.77;;;5.27;;
6223;SDS011;3145;42.726;23.342;2023-04-01T15:28:04;4.83;;;4.27;;
6223;SDS011;3145;42.726;23.342;2023-04-01T15:30:45;12.80;;;7.03;;
6223;SDS011;3145;42.726;23.342;2023-04-01T15:33:26;9.97;;;7.60;;
6223;SDS011;3145;42.726;23.342;2023-04-01T15:36:13;5.73;;;5.13;;
6223;SDS011;3145;42.726;23.342;2023-04-01T15:38:52;12.93;;;8.80;;
6223;SDS011;3145;42.726;23.342;2023-04-01T15:41:27;6.03;;;4.90;;
6223;SDS011;3145;42.726;23.342;2023-04-01T15:44:02;10.57;;;9.47;;
6223;SDS011;3145;42.726;23.342;2023-04-01T15:46:43;9.83;;;7.53;;
6223;SDS011;3145;42.726;23.342;2023-04-01T15:49:18;7.93;;;7.13;;
6223;SDS011;3145;42.726;23.342;2023-04-01T15:57:40;3.50;;;1.80;;
6223;SDS011;3145;42.726;23.342;2023-04-01T16:00:25;3.27;;;2.97;;
6223;SDS011;3145;42.726;23.342;2023-04-01T16:03:07;4.37;;;4.00;;
6223;SDS011;3145;42.726;23.342;2023-04-01T16:05:47;5.00;;;4.50;;
6223;SDS011;3145;42.726;23.342;2023-04-01T16:08:38;6.60;;;6.10;;
6223;SDS011;3145;42.726;23.342;2023-04-01T16:11:18;9.90;;;7.90;;
6223;SDS011;3145;42.726;23.342;2023-04-01T16:13:59;8.70;;;7.80;;
6223;SDS011;3145;42.726;23.342;2023-04-01T16:16:47;9.40;;;8.60;;
6223;SDS011;3145;42.726;23.342;2023-04-01T16:19:32;9.10;;;8.20;;
6223;SDS011;3145;42.726;23.342;2023-04-01T16:22:07;7.23;;;6.63;;
6223;SDS011;3145;42.726;23.342;2023-04-01T16:24:38;10.07;;;6.40;;
6223;SDS011;3145;42.726;23.342;2023-04-01T16:27:10;8.63;;;7.93;;
6223;SDS011;3145;42.726;23.342;2023-04-01T16:29:43;10.10;;;9.20;;
6223;SDS011;3145;42.726;23.342;2023-04-01T16:32:17;10.60;;;9.57;;
6223;SDS011;3145;42.726;23.342;2023-04-01T16:34:55;10.73;;;8.90;;
6223;SDS011;3145;42.726;23.342;2023-04-01T16:37:32;14.37;;;11.17;;
6223;SDS011;3145;42.726;23.342;2023-04-01T16:40:09;9.50;;;8.70;;
6223;SDS011;3145;42.726;23.342;2023-04-01T16:42:43;7.87;;;7.27;;
6223;SDS011;3145;42.726;23.342;2023-04-01T16:45:16;7.23;;;6.60;;
6223;SDS011;3145;42.726;23.342;2023-04-01T16:47:53;5.17;;;4.77;;
6223;SDS011;3145;42.726;23.342;2023-04-01T16:50:23;4.40;;;4.10;;
6223;SDS011;3145;42.726;23.342;2023-04-01T16:52:56;5.03;;;4.30;;
6223;SDS011;3145;42.726;23.342;2023-04-01T16:55:41;4.57;;;4.10;;
6223;SDS011;3145;42.726;23.342;2023-04-01T16:58:14;3.57;;;3.30;;
6223;SDS011;3145;42.726;23.342;2023-04-01T17:00:47;3.40;;;3.20;;
6223;SDS011;3145;42.726;23.342;2023-04-01T17:03:16;3.80;;;3.60;;
6223;SDS011;3145;42.726;23.342;2023-04-01T17:05:52;3.57;;;3.37;;
6223;SDS011;3145;42.726;23.342;2023-04-01T17:08:34;3.50;;;3.30;;
6223;SDS011;3145;42.726;23.342;2023-04-01T17:11:10;4.47;;;4.17;;
6223;SDS011;3145;42.726;23.342;2023-04-01T17:13:46;6.30;;;5.70;;
6223;SDS011;3145;42.726;23.342;2023-04-01T17:19:16;5.70;;;5.30;;
6223;SDS011;3145;42.726;23.342;2023-04-01T17:22:01;5.60;;;5.20;;
6223;SDS011;3145;42.726;23.342;2023-04-01T17:24:41;5.13;;;4.77;;
6223;SDS011;3145;42.726;23.342;2023-04-01T17:27:20;5.23;;;4.93;;
6223;SDS011;3145;42.726;23.342;2023-04-01T17:32:53;5.80;;;5.30;;
6223;SDS011;3145;42.726;23.342;2023-04-01T17:35:37;5.73;;;5.33;;
6223;SDS011;3145;42.726;23.342;2023-04-01T17:38:13;5.63;;;5.33;;